createdAt,value
2023-02-17T00:01:25.141Z,23.70
2023-02-17T00:03:52.808Z,23.92
2023-02-17T00:06:21.425Z,22.70
2023-02-17T00:08:49.262Z,22.85
2023-02-17T00:11:16.978Z,25.77
2023-02-17T00:13:44.462Z,24.80
2023-02-17T00:16:13.454Z,28.38
2023-02-17T00:18:40.725Z,28.02
2023-02-17T00:21:14.178Z,28.17
2023-02-17T00:23:41.610Z,30.83
2023-02-17T00:26:09.078Z,30.50
2023-02-17T00:28:36.656Z,27.88
2023-02-17T00:31:08.046Z,32.28
2023-02-17T00:33:35.375Z,31.52
2023-02-17T00:36:07.188Z,29.67
2023-02-17T00:38:34.660Z,32.17
2023-02-17T00:41:01.918Z,33.30
2023-02-17T00:43:31.468Z,28.17
2023-02-17T00:45:58.799Z,33.55
2023-02-17T00:48:26.044Z,33.10
2023-02-17T00:50:53.232Z,28.42
2023-02-17T00:53:21.104Z,28.13
2023-02-17T00:55:48.510Z,29.77
2023-02-17T00:58:16.167Z,29.52
2023-02-17T01:00:43.481Z,30.92
2023-02-17T01:03:10.774Z,31.08
2023-02-17T01:05:42.061Z,28.80
2023-02-17T01:08:09.488Z,29.45
2023-02-17T01:10:37.929Z,28.15
2023-02-17T01:13:05.612Z,29.53
2023-02-17T01:15:33.428Z,28.48
2023-02-17T01:18:00.702Z,26.60
2023-02-17T01:20:28.070Z,28.13
2023-02-17T01:22:55.302Z,28.85
2023-02-17T01:25:23.861Z,28.88
2023-02-17T01:27:51.336Z,30.55
2023-02-17T01:30:18.700Z,26.80
2023-02-17T01:32:46.505Z,25.85
2023-02-17T01:35:13.805Z,24.45
2023-02-17T01:37:41.057Z,27.00
2023-02-17T01:40:08.581Z,25.10
2023-02-17T01:42:35.812Z,24.02
2023-02-17T01:45:29.494Z,24.33
2023-02-17T01:48:22.934Z,26.17
2023-02-17T01:50:59.494Z,26.38
2023-02-17T01:53:50.519Z,22.67
2023-02-17T01:56:18.120Z,23.13
2023-02-17T01:58:51.763Z,23.15
2023-02-17T02:01:20.417Z,22.23
2023-02-17T02:03:48.223Z,23.98
2023-02-17T02:06:19.569Z,22.80
2023-02-17T02:08:51.996Z,21.75
2023-02-17T02:11:19.318Z,21.23
2023-02-17T02:16:21.695Z,18.73
2023-02-17T02:19:09.471Z,22.55
2023-02-17T02:21:51.223Z,20.75
2023-02-17T02:24:44.328Z,23.02
2023-02-17T02:27:27.601Z,23.63
2023-02-17T02:29:57.825Z,18.80
2023-02-17T02:32:25.052Z,20.75
2023-02-17T02:35:11.192Z,21.48
2023-02-17T02:37:50.747Z,20.85
2023-02-17T02:40:20.385Z,21.65
2023-02-17T02:42:47.658Z,19.90
2023-02-17T02:45:14.915Z,18.65
2023-02-17T02:47:45.372Z,18.55
2023-02-17T02:50:17.655Z,20.25
2023-02-17T02:52:51.057Z,19.23
2023-02-17T02:55:38.632Z,18.25
2023-02-17T02:58:15.007Z,21.15
2023-02-17T03:00:42.401Z,19.92
2023-02-17T03:03:13.442Z,19.83
2023-02-17T03:05:56.694Z,15.57
2023-02-17T03:08:29.921Z,17.17
2023-02-17T03:10:58.145Z,17.80
2023-02-17T03:13:25.594Z,17.73
2023-02-17T03:15:53.068Z,18.75
2023-02-17T03:18:20.358Z,19.10
2023-02-17T03:20:58.138Z,18.88
2023-02-17T03:23:26.068Z,20.10
2023-02-17T03:25:53.614Z,16.58
2023-02-17T03:28:20.880Z,20.70
2023-02-17T03:30:48.704Z,19.38
2023-02-17T03:33:15.947Z,17.85
2023-02-17T03:35:43.194Z,16.58
2023-02-17T03:38:10.451Z,18.83
2023-02-17T03:40:37.976Z,17.77
2023-02-17T03:43:05.244Z,17.65
2023-02-17T03:45:32.900Z,17.98
2023-02-17T03:48:00.287Z,18.50
2023-02-17T03:50:27.548Z,19.35
2023-02-17T03:52:54.808Z,17.13
2023-02-17T03:55:22.099Z,16.95
2023-02-17T03:57:49.333Z,18.35
2023-02-17T04:00:16.803Z,19.88
2023-02-17T04:02:44.372Z,16.50
2023-02-17T04:05:11.725Z,17.35
2023-02-17T04:07:39.180Z,18.63
2023-02-17T04:10:09.299Z,23.17
2023-02-17T04:12:36.797Z,20.98
2023-02-17T04:15:04.236Z,18.67
2023-02-17T04:17:31.509Z,20.05
2023-02-17T04:19:58.886Z,21.65
2023-02-17T04:22:26.134Z,21.70
2023-02-17T04:24:53.415Z,21.83
2023-02-17T04:27:20.637Z,23.20
2023-02-17T04:29:47.918Z,21.60
2023-02-17T04:32:15.246Z,22.20
2023-02-17T04:34:42.471Z,22.48
2023-02-17T04:37:09.728Z,20.02
2023-02-17T04:39:36.915Z,25.98
2023-02-17T04:42:04.268Z,22.85
2023-02-17T04:44:31.586Z,24.10
2023-02-17T04:46:58.805Z,24.08
2023-02-17T04:49:26.027Z,21.40
2023-02-17T04:51:53.308Z,24.65
2023-02-17T04:54:22.739Z,22.27
2023-02-17T04:56:50.018Z,28.35
2023-02-17T04:59:17.266Z,22.65
2023-02-17T05:01:44.461Z,26.25
2023-02-17T05:04:11.661Z,24.70
2023-02-17T05:06:38.907Z,27.50
2023-02-17T05:09:06.148Z,27.50
2023-02-17T05:11:33.470Z,30.05
2023-02-17T05:14:00.919Z,26.17
2023-02-17T05:16:28.156Z,27.40
2023-02-17T05:18:55.432Z,24.85
2023-02-17T05:21:22.687Z,24.08
2023-02-17T05:23:49.893Z,20.38
2023-02-17T05:26:17.128Z,24.05
2023-02-17T05:28:44.313Z,21.80
2023-02-17T05:31:12.509Z,24.40
2023-02-17T05:33:39.886Z,24.80
2023-02-17T05:36:08.257Z,21.75
2023-02-17T05:38:36.176Z,21.65
2023-02-17T05:41:03.458Z,23.92
2023-02-17T05:43:30.659Z,23.63
2023-02-17T05:46:01.801Z,21.60
2023-02-17T05:48:29.019Z,20.85
2023-02-17T05:50:56.202Z,21.40
2023-02-17T05:53:23.437Z,21.95
2023-02-17T05:55:50.691Z,24.42
2023-02-17T05:58:18.017Z,25.38
2023-02-17T06:00:46.043Z,22.95
2023-02-17T06:03:13.544Z,20.27
2023-02-17T06:05:40.954Z,20.00
2023-02-17T06:08:08.159Z,21.88
2023-02-17T06:10:35.419Z,24.13
2023-02-17T06:13:03.636Z,26.50
2023-02-17T06:15:30.998Z,24.45
2023-02-17T06:17:58.285Z,26.38
2023-02-17T06:20:25.610Z,25.30
2023-02-17T06:22:52.888Z,24.13
2023-02-17T06:25:20.128Z,25.63
2023-02-17T06:27:47.364Z,26.30
2023-02-17T06:30:15.060Z,23.23
2023-02-17T06:32:42.338Z,24.20
2023-02-17T06:35:09.836Z,22.88
2023-02-17T06:37:37.302Z,23.50
2023-02-17T06:40:04.842Z,17.80
2023-02-17T06:42:32.230Z,22.20
2023-02-17T06:45:00.819Z,22.05
2023-02-17T06:47:28.037Z,21.23
2023-02-17T06:49:55.305Z,19.27
2023-02-17T06:52:22.509Z,16.80
2023-02-17T06:54:49.888Z,18.10
2023-02-17T06:57:17.761Z,18.33
2023-02-17T06:59:45.044Z,19.17
2023-02-17T07:02:13.041Z,16.77
2023-02-17T07:04:40.793Z,18.63
2023-02-17T07:07:08.462Z,20.38
2023-02-17T07:09:35.963Z,20.88
2023-02-17T07:12:03.482Z,19.55
2023-02-17T07:14:30.839Z,20.13
2023-02-17T07:16:58.064Z,19.55
2023-02-17T07:19:25.473Z,19.73
2023-02-17T07:21:52.795Z,18.95
2023-02-17T07:24:20.191Z,19.33
2023-02-17T07:26:47.462Z,18.83
2023-02-17T07:29:14.778Z,18.80
2023-02-17T07:31:42.062Z,20.17
2023-02-17T07:34:09.359Z,20.25
2023-02-17T07:36:36.650Z,20.40
2023-02-17T07:39:04.300Z,19.65
2023-02-17T07:41:33.587Z,20.33
2023-02-17T07:44:10.111Z,20.08
2023-02-17T07:46:39.565Z,21.08
2023-02-17T07:49:07.105Z,15.98
2023-02-17T07:51:35.178Z,17.45
2023-02-17T07:54:02.842Z,18.95
2023-02-17T07:56:30.194Z,19.58
2023-02-17T07:58:57.626Z,19.48
2023-02-17T08:01:25.849Z,18.67
2023-02-17T08:03:53.311Z,15.33
2023-02-17T08:06:22.018Z,17.95
2023-02-17T08:09:08.571Z,18.27
2023-02-17T08:11:54.629Z,17.40
2023-02-17T08:14:22.630Z,16.65
2023-02-17T08:16:49.997Z,17.55
2023-02-17T08:19:17.301Z,16.13
2023-02-17T08:21:44.718Z,14.80
2023-02-17T08:24:12.380Z,17.40
2023-02-17T08:26:40.023Z,17.45
2023-02-17T08:29:07.254Z,13.63
2023-02-17T08:31:36.354Z,15.00
2023-02-17T08:34:05.605Z,16.10
2023-02-17T08:36:33.214Z,15.15
2023-02-17T08:39:04.207Z,15.98
2023-02-17T08:41:32.575Z,15.93
2023-02-17T08:44:01.539Z,14.50
2023-02-17T08:46:30.153Z,15.40
2023-02-17T08:48:57.893Z,15.93
2023-02-17T08:51:26.184Z,17.80
2023-02-17T08:53:54.504Z,14.63
2023-02-17T08:56:25.550Z,15.70
2023-02-17T08:58:52.912Z,15.93
2023-02-17T09:01:20.812Z,15.65
2023-02-17T09:03:49.763Z,18.10
2023-02-17T09:06:17.766Z,14.45
2023-02-17T09:08:45.578Z,15.73
2023-02-17T09:11:15.467Z,13.77
2023-02-17T09:13:42.962Z,17.63
2023-02-17T09:16:11.046Z,17.88
2023-02-17T09:18:38.506Z,16.80
2023-02-17T09:21:07.169Z,16.05
2023-02-17T09:23:34.724Z,15.48
2023-02-17T09:26:06.910Z,16.50
2023-02-17T09:28:34.715Z,14.57
2023-02-17T09:31:22.412Z,14.40
2023-02-17T09:33:50.313Z,13.05
2023-02-17T09:36:19.445Z,13.55
2023-02-17T09:38:46.818Z,15.70
2023-02-17T09:41:23.383Z,15.55
2023-02-17T09:43:51.286Z,15.30
2023-02-17T09:46:18.576Z,15.77
2023-02-17T09:48:47.402Z,12.00
2023-02-17T09:51:22.610Z,12.75
2023-02-17T09:53:55.017Z,13.18
2023-02-17T09:56:31.517Z,13.90
2023-02-17T09:59:01.384Z,13.27
2023-02-17T10:01:32.792Z,13.13
2023-02-17T10:04:09.919Z,12.80
2023-02-17T10:07:03.779Z,12.73
2023-02-17T10:09:37.046Z,12.85
2023-02-17T10:12:14.040Z,11.57
2023-02-17T10:14:44.174Z,10.70
2023-02-17T10:17:16.084Z,11.80
2023-02-17T10:19:49.543Z,12.25
2023-02-17T10:22:19.027Z,11.10
2023-02-17T10:24:46.261Z,11.73
2023-02-17T10:27:23.026Z,11.80
2023-02-17T10:29:56.915Z,10.80
2023-02-17T10:32:25.610Z,13.10
2023-02-17T10:35:08.512Z,11.70
2023-02-17T10:37:49.795Z,12.38
2023-02-17T10:40:17.129Z,12.63
2023-02-17T10:42:44.402Z,12.43
2023-02-17T10:45:15.384Z,10.10
2023-02-17T10:47:42.829Z,10.85
2023-02-17T10:50:21.079Z,11.05
2023-02-17T10:52:49.005Z,12.27
2023-02-17T10:55:23.160Z,12.50
2023-02-17T10:57:54.798Z,10.63
2023-02-17T11:00:22.725Z,11.30
2023-02-17T11:02:52.250Z,11.35
2023-02-17T11:05:27.388Z,9.80
2023-02-17T11:08:00.463Z,12.43
2023-02-17T11:10:29.828Z,11.88
2023-02-17T11:15:36.384Z,11.48
2023-02-17T11:18:11.066Z,11.38
2023-02-17T11:20:38.975Z,10.50
2023-02-17T11:23:15.926Z,9.63
2023-02-17T11:25:43.889Z,10.57
2023-02-17T11:28:15.154Z,9.55
2023-02-17T11:30:50.409Z,10.10
2023-02-17T11:33:22.633Z,8.85
2023-02-17T11:35:51.754Z,9.68
2023-02-17T11:38:20.585Z,9.27
2023-02-17T11:40:55.436Z,10.00
2023-02-17T11:43:23.763Z,10.43
2023-02-17T11:46:00.970Z,7.85
2023-02-17T11:48:47.324Z,7.90
2023-02-17T11:51:23.845Z,10.73
2023-02-17T11:54:03.009Z,9.30
2023-02-17T11:58:57.410Z,7.63
2023-02-17T12:01:43.940Z,6.47
2023-02-17T12:04:28.661Z,7.40
2023-02-17T12:07:15.182Z,7.65
2023-02-17T12:09:49.728Z,8.80
2023-02-17T12:12:37.554Z,8.35
2023-02-17T12:15:19.951Z,7.32
2023-02-17T12:17:50.438Z,5.75
2023-02-17T12:20:17.917Z,6.30
2023-02-17T12:23:01.626Z,6.28
2023-02-17T12:25:31.995Z,5.68
2023-02-17T12:28:05.372Z,5.63
2023-02-17T12:30:32.686Z,5.70
2023-02-17T12:33:09.105Z,6.53
2023-02-17T12:35:43.678Z,6.40
2023-02-17T12:38:16.712Z,6.15
2023-02-17T12:40:47.943Z,5.68
2023-02-17T12:43:18.240Z,5.78
2023-02-17T12:45:47.209Z,4.72
2023-02-17T12:48:23.356Z,7.30
2023-02-17T12:50:59.696Z,5.38
2023-02-17T12:53:45.234Z,5.53
2023-02-17T12:56:21.289Z,5.07
2023-02-17T12:58:49.145Z,5.60
2023-02-17T13:01:19.855Z,5.35
2023-02-17T13:03:47.329Z,5.20
2023-02-17T13:06:37.348Z,4.45
2023-02-17T13:09:04.713Z,4.70
2023-02-17T13:11:34.129Z,4.75
2023-02-17T13:14:12.224Z,4.82
2023-02-17T13:16:44.103Z,4.78
2023-02-17T13:19:11.365Z,5.97
2023-02-17T13:21:49.152Z,5.53
2023-02-17T13:24:31.161Z,5.32
2023-02-17T13:26:58.481Z,4.70
2023-02-17T13:29:25.730Z,5.18
2023-02-17T13:31:57.505Z,4.43
2023-02-17T13:34:30.136Z,4.63
2023-02-17T13:36:57.576Z,5.18
2023-02-17T13:39:27.741Z,4.53
2023-02-17T13:41:59.406Z,6.18
2023-02-17T13:44:35.672Z,4.45
2023-02-17T13:47:18.035Z,5.15
2023-02-17T13:49:52.147Z,4.72
2023-02-17T13:52:22.474Z,4.60
2023-02-17T13:55:15.771Z,4.65
2023-02-17T13:57:44.069Z,4.10
2023-02-17T14:00:14.110Z,4.82
2023-02-17T14:02:49.530Z,4.38
2023-02-17T14:05:18.961Z,6.03
2023-02-17T14:07:50.145Z,4.35
2023-02-17T14:10:25.023Z,5.95
2023-02-17T14:12:53.057Z,4.00
2023-02-17T14:15:22.208Z,5.10
2023-02-17T14:17:49.738Z,5.53
2023-02-17T14:20:28.897Z,4.38
2023-02-17T14:25:32.897Z,4.10
2023-02-17T14:28:00.198Z,5.78
2023-02-17T14:30:30.737Z,4.30
2023-02-17T14:33:16.704Z,4.80
2023-02-17T14:36:00.721Z,4.32
2023-02-17T14:38:29.288Z,2.95
2023-02-17T14:40:56.912Z,4.72
2023-02-17T14:43:24.396Z,4.20
2023-02-17T14:45:52.128Z,4.32
2023-02-17T14:48:19.799Z,3.65
2023-02-17T14:50:47.602Z,3.63
2023-02-17T14:53:19.827Z,5.65
2023-02-17T14:55:51.157Z,4.78
2023-02-17T14:58:20.029Z,4.88
2023-02-17T15:00:47.700Z,3.70
2023-02-17T15:03:15.054Z,4.00
2023-02-17T15:05:42.988Z,4.07
2023-02-17T15:08:15.670Z,4.40
2023-02-17T15:10:43.197Z,4.32
2023-02-17T15:13:21.295Z,3.88
2023-02-17T15:15:49.860Z,3.78
2023-02-17T15:18:18.598Z,4.28
2023-02-17T15:20:54.991Z,4.60
2023-02-17T15:23:25.542Z,3.33
2023-02-17T15:25:54.806Z,3.97
2023-02-17T15:30:54.499Z,4.97
2023-02-17T15:33:22.754Z,3.53
2023-02-17T15:35:53.515Z,5.57
2023-02-17T15:38:21.298Z,3.25
2023-02-17T15:40:48.710Z,3.17
2023-02-17T15:43:19.394Z,4.10
2023-02-17T15:45:46.672Z,5.68
2023-02-17T15:48:24.481Z,5.30
2023-02-17T15:50:52.336Z,4.00
2023-02-17T15:53:19.669Z,4.45
2023-02-17T15:55:47.242Z,4.25
2023-02-17T15:58:19.017Z,4.30
2023-02-17T16:00:46.739Z,3.95
2023-02-17T16:03:14.599Z,3.67
2023-02-17T16:05:42.359Z,3.58
2023-02-17T16:08:09.646Z,4.50
2023-02-17T16:10:39.484Z,3.30
2023-02-17T16:13:07.983Z,5.53
2023-02-17T16:15:37.575Z,2.70
2023-02-17T16:18:04.843Z,3.90
2023-02-17T16:20:34.871Z,4.25
2023-02-17T16:23:02.761Z,4.40
2023-02-17T16:25:30.820Z,4.55
2023-02-17T16:27:58.195Z,3.10
2023-02-17T16:30:35.143Z,4.13
2023-02-17T16:33:03.159Z,4.20
2023-02-17T16:35:31.466Z,3.58
2023-02-17T16:38:09.542Z,3.90
2023-02-17T16:40:37.797Z,3.60
2023-02-17T16:43:05.245Z,4.93
2023-02-17T16:45:33.310Z,4.97
2023-02-17T16:48:01.588Z,3.90
2023-02-17T16:50:33.425Z,4.57
2023-02-17T16:53:02.192Z,4.03
2023-02-17T16:55:31.008Z,4.28
2023-02-17T16:57:58.385Z,4.38
2023-02-17T17:00:27.871Z,6.75
2023-02-17T17:02:55.326Z,4.22
2023-02-17T17:05:22.617Z,4.47
2023-02-17T17:07:51.281Z,5.00
2023-02-17T17:10:20.413Z,3.58
2023-02-17T17:12:47.965Z,5.10
2023-02-17T17:15:17.401Z,5.60
2023-02-17T17:17:46.003Z,5.45
2023-02-17T17:20:14.646Z,5.60
2023-02-17T17:22:42.090Z,5.72
2023-02-17T17:25:09.560Z,7.53
2023-02-17T17:27:37.488Z,6.82
2023-02-17T17:30:05.995Z,5.43
2023-02-17T17:32:33.401Z,4.38
2023-02-17T17:35:00.687Z,5.38
2023-02-17T17:37:27.930Z,5.63
2023-02-17T17:39:55.178Z,5.32
2023-02-17T17:42:22.427Z,8.65
2023-02-17T17:44:49.708Z,7.10
2023-02-17T17:47:28.138Z,6.45
2023-02-17T17:49:56.477Z,6.50
2023-02-17T17:52:24.289Z,7.35
2023-02-17T17:54:51.696Z,7.80
2023-02-17T17:57:18.946Z,7.15
2023-02-17T17:59:46.183Z,7.32
2023-02-17T18:02:13.506Z,7.80
2023-02-17T18:04:40.756Z,7.07
2023-02-17T18:07:08.206Z,6.95
2023-02-17T18:09:36.788Z,7.00
2023-02-17T18:12:14.618Z,8.98
2023-02-17T18:14:42.788Z,7.43
2023-02-17T18:17:10.661Z,6.95
2023-02-17T18:19:38.236Z,8.48
2023-02-17T18:22:05.572Z,8.65
2023-02-17T18:24:33.043Z,7.80
2023-02-17T18:27:00.483Z,7.57
2023-02-17T18:29:27.868Z,8.10
2023-02-17T18:31:55.277Z,7.40
2023-02-17T18:34:22.690Z,8.00
2023-02-17T18:36:49.959Z,9.00
2023-02-17T18:39:17.420Z,9.02
2023-02-17T18:41:44.657Z,7.90
2023-02-17T18:44:13.632Z,8.32
2023-02-17T18:46:41.108Z,8.93
2023-02-17T18:49:08.646Z,8.43
2023-02-17T18:51:36.172Z,9.07
2023-02-17T18:54:03.765Z,8.68
2023-02-17T18:56:33.219Z,8.55
2023-02-17T18:59:00.797Z,9.32
2023-02-17T19:01:30.312Z,7.68
2023-02-17T19:03:57.971Z,9.75
2023-02-17T19:06:26.626Z,10.90
2023-02-17T19:08:53.938Z,8.23
2023-02-17T19:11:22.231Z,9.65
2023-02-17T19:13:49.932Z,10.40
2023-02-17T19:16:25.353Z,8.77
2023-02-17T19:18:52.905Z,8.63
2023-02-17T19:21:20.495Z,10.35
2023-02-17T19:23:48.263Z,8.20
2023-02-17T19:26:16.095Z,10.50
2023-02-17T19:28:43.578Z,9.77
2023-02-17T19:31:12.600Z,9.73
2023-02-17T19:33:40.074Z,10.05
2023-02-17T19:36:11.833Z,12.13
2023-02-17T19:38:39.397Z,10.98
2023-02-17T19:41:07.705Z,10.63
2023-02-17T19:43:35.176Z,11.52
2023-02-17T19:46:02.649Z,13.85
2023-02-17T19:48:29.985Z,11.00
2023-02-17T19:51:01.511Z,11.82
2023-02-17T19:53:28.889Z,10.20
2023-02-17T19:55:56.140Z,11.85
2023-02-17T19:58:23.636Z,10.30
2023-02-17T20:00:51.072Z,12.57
2023-02-17T20:03:18.363Z,14.40
2023-02-17T20:05:45.562Z,11.63
2023-02-17T20:08:12.831Z,11.32
2023-02-17T20:10:40.420Z,12.10
2023-02-17T20:13:07.721Z,11.73
2023-02-17T20:15:35.083Z,13.23
2023-02-17T20:18:02.400Z,11.50
2023-02-17T20:20:29.769Z,13.23
2023-02-17T20:22:57.039Z,10.48
2023-02-17T20:25:24.292Z,12.52
2023-02-17T20:27:52.938Z,14.13
2023-02-17T20:30:20.259Z,11.48
2023-02-17T20:32:47.533Z,14.15
2023-02-17T20:35:14.947Z,12.05
2023-02-17T20:37:42.186Z,12.75
2023-02-17T20:40:09.579Z,11.98
2023-02-17T20:42:36.937Z,13.85
2023-02-17T20:45:04.325Z,12.45
2023-02-17T20:47:31.608Z,12.52
2023-02-17T20:49:58.844Z,13.20
2023-02-17T20:52:26.227Z,10.60
2023-02-17T20:54:53.520Z,11.93
2023-02-17T20:57:20.828Z,11.85
2023-02-17T20:59:48.291Z,11.60
2023-02-17T21:02:15.654Z,12.25
2023-02-17T21:04:42.976Z,12.02
2023-02-17T21:07:11.168Z,12.18
2023-02-17T21:09:38.537Z,12.55
2023-02-17T21:12:05.933Z,12.15
2023-02-17T21:14:33.295Z,14.75
2023-02-17T21:17:00.754Z,13.70
2023-02-17T21:19:29.670Z,13.02
2023-02-17T21:21:57.150Z,12.52
2023-02-17T21:24:24.388Z,13.07
2023-02-17T21:26:51.679Z,13.05
2023-02-17T21:29:19.116Z,13.07
2023-02-17T21:31:46.476Z,13.65
2023-02-17T21:34:13.970Z,13.13
2023-02-17T21:36:41.323Z,13.15
2023-02-17T21:39:08.563Z,13.38
2023-02-17T21:41:35.863Z,13.85
2023-02-17T21:44:21.842Z,13.85
2023-02-17T21:46:49.519Z,11.95
2023-02-17T21:49:16.714Z,13.00
2023-02-17T21:51:44.352Z,13.98
2023-02-17T21:54:11.693Z,13.60
2023-02-17T21:56:39.263Z,12.15
2023-02-17T21:59:07.126Z,12.70
2023-02-17T22:01:34.408Z,13.48
2023-02-17T22:04:02.601Z,12.07
2023-02-17T22:06:31.172Z,11.80
2023-02-17T22:08:59.080Z,11.65
2023-02-17T22:11:30.875Z,12.20
2023-02-17T22:13:59.164Z,13.45
2023-02-17T22:16:27.185Z,14.93
2023-02-17T22:18:54.558Z,13.60
2023-02-17T22:21:21.890Z,14.07
2023-02-17T22:23:49.637Z,16.02
2023-02-17T22:26:18.617Z,13.18
2023-02-17T22:28:46.366Z,14.07
2023-02-17T22:31:14.784Z,13.52
2023-02-17T22:33:42.750Z,15.20
2023-02-17T22:36:14.445Z,13.73
2023-02-17T22:38:41.713Z,15.00
2023-02-17T22:41:10.265Z,14.13
2023-02-17T22:43:38.213Z,14.45
2023-02-17T22:46:06.436Z,14.52
2023-02-17T22:48:34.596Z,17.20
2023-02-17T22:51:28.249Z,15.10
2023-02-17T22:53:55.645Z,14.43
2023-02-17T22:56:23.234Z,14.23
2023-02-17T22:58:55.717Z,15.40
2023-02-17T23:01:23.316Z,15.00
2023-02-17T23:03:53.934Z,17.20
2023-02-17T23:06:23.100Z,14.38
2023-02-17T23:08:50.490Z,13.52
2023-02-17T23:11:19.179Z,13.75
2023-02-17T23:13:46.470Z,15.15
2023-02-17T23:16:21.545Z,14.48
2023-02-17T23:18:48.985Z,14.07
2023-02-17T23:21:16.357Z,16.30
2023-02-17T23:23:43.598Z,15.15
2023-02-17T23:26:11.019Z,13.23
2023-02-17T23:28:38.302Z,13.80
2023-02-17T23:31:10.268Z,14.13
2023-02-17T23:33:37.915Z,13.85
2023-02-17T23:36:05.832Z,15.10
2023-02-17T23:38:33.422Z,15.65
2023-02-17T23:41:01.359Z,17.40
2023-02-17T23:43:29.222Z,14.10
2023-02-17T23:45:56.998Z,14.75
2023-02-17T23:48:24.421Z,15.13
2023-02-17T23:50:58.908Z,17.70
2023-02-17T23:53:26.463Z,17.05
2023-02-17T23:56:04.560Z,15.23
2023-02-17T23:58:32.336Z,16.83
